Terminal Aerodrome Forecast
Issued by NWS

Home | Current Version | Previous Version | Graphics & Text | Print | Product List | Glossary On
Versions: 1 2 3 4 5 6 7 8 9 10 11 12 13 14 15 16 17 18 19 20 21 22
000
FTUS43 KLOT 270851 AAA
TAFGYY
TAF AMD
KGYY 270851Z 2709/2806 19006KT P6SM FEW060 BKN250
     FM271300 20011KT P6SM VCSH SCT040 BKN250
     FM272000 18010KT P6SM VCSH BKN050 BKN250 PROB30 2720/2724 4SM
      TSRA SCT030 OVC050CB
     FM280200 17008KT P6SM SCT050 BKN150=

USA.gov is the U.S. government's official web portal to all federal, state and local government web resources and services.